Time;durP1;ratioP1;P1;durP2;ratioP2;P2;SDS_P1;SDS_P2;PMS_P1;PMS_P2;Temp;Humidity;BMP_temperature;BMP_pressure;BME280_temperature;BME280_humidity;BME280_pressure;Samples;Min_cycle;Max_cycle;Signal;HPM_P1;HPM_P2
2021/06/26 00:01:40;;;;;;;38.97;33.90;;;;;;;21.08;74.66;93444.88;5072630;28;20032;-50
2021/06/26 00:04:06;;;;;;;34.40;31.27;;;;;;;21.02;74.48;93441.72;5072639;28;20252;-51
2021/06/26 00:06:33;;;;;;;35.13;30.58;;;;;;;20.96;74.41;93428.06;5072196;28;20390;-52
2021/06/26 00:08:59;;;;;;;34.67;31.60;;;;;;;20.92;75.12;93433.47;5072077;28;20476;-48
2021/06/26 00:11:25;;;;;;;37.72;34.10;;;;;;;21.02;75.47;93445.28;5073398;28;20028;-47
2021/06/26 00:13:50;;;;;;;39.33;35.88;;;;;;;20.97;75.76;93437.97;5090675;28;20031;-47
2021/06/26 00:16:15;;;;;;;37.20;33.92;;;;;;;20.97;75.45;93432.34;5092687;28;20109;-46
2021/06/26 00:18:41;;;;;;;39.90;36.40;;;;;;;20.86;75.77;93433.13;5092547;28;20035;-48
2021/06/26 00:21:06;;;;;;;52.58;49.05;;;;;;;20.81;76.69;93430.72;5092580;28;20550;-47
2021/06/26 00:23:32;;;;;;;48.75;45.00;;;;;;;20.85;76.49;93437.31;5092229;28;20476;-50
2021/06/26 00:25:57;;;;;;;50.63;46.88;;;;;;;20.97;76.58;93431.63;5092172;28;20035;-47
2021/06/26 00:28:23;;;;;;;37.70;34.88;;;;;;;20.93;76.08;93437.75;5092080;28;20077;-47
2021/06/26 00:30:48;;;;;;;38.50;35.47;;;;;;;20.96;76.08;93444.91;5091896;28;20035;-48
2021/06/26 00:33:14;;;;;;;32.45;29.23;;;;;;;21.08;74.66;93445.63;5092074;28;20452;-47
2021/06/26 00:35:39;;;;;;;34.72;31.88;;;;;;;21.02;75.12;93445.28;5086684;28;20403;-50
2021/06/26 00:38:05;;;;;;;35.22;30.65;;;;;;;21.03;75.19;93443.94;5071914;28;20119;-48
2021/06/26 00:40:30;;;;;;;38.22;35.15;;;;;;;21.02;75.42;93450.88;5071666;28;20394;-47
2021/06/26 00:42:56;;;;;;;37.30;34.08;;;;;;;21.03;75.71;93457.97;5071918;28;20056;-49
2021/06/26 00:45:21;;;;;;;36.17;33.13;;;;;;;21.02;75.69;93452.94;5071301;28;20102;-49
2021/06/26 00:47:47;;;;;;;33.75;31.00;;;;;;;21.01;75.75;93457.84;5070883;28;20067;-50
2021/06/26 00:50:25;;;;;;;38.55;35.40;;;;;;;21.01;76.05;93452.22;5071452;28;20028;-50
2021/06/26 00:52:51;;;;;;;37.92;34.45;;;;;;;21.04;75.96;93448.22;5070516;28;20107;-49
2021/06/26 00:55:17;;;;;;;40.67;37.22;;;;;;;21.08;76.19;93450.50;5071765;28;20024;-49
2021/06/26 00:57:45;;;;;;;40.72;37.40;;;;;;;21.08;76.30;93447.69;5071597;28;20031;-49
2021/06/26 01:00:12;;;;;;;37.45;33.42;;;;;;;21.11;76.17;93440.84;5071302;28;20498;-47
2021/06/26 01:02:38;;;;;;;37.55;34.22;;;;;;;21.16;75.66;93436.91;5071600;28;20024;-52
2021/06/26 01:05:03;;;;;;;38.42;35.33;;;;;;;21.10;76.16;93442.19;5071152;28;20082;-51
2021/06/26 01:07:29;;;;;;;42.80;39.40;;;;;;;21.01;76.62;93446.59;5070974;28;20529;-53
2021/06/26 01:09:54;;;;;;;46.47;42.85;;;;;;;21.09;76.71;93437.94;5071191;28;20032;-51
2021/06/26 01:12:20;;;;;;;41.97;38.25;;;;;;;21.12;76.37;93434.63;5076738;28;20031;-50
2021/06/26 01:14:48;;;;;;;36.92;33.58;;;;;;;21.07;76.22;93432.94;5091268;28;20033;-53
2021/06/26 01:17:13;;;;;;;39.07;35.93;;;;;;;21.08;76.35;93428.03;5089781;28;20028;-49
2021/06/26 01:19:39;;;;;;;38.30;34.50;;;;;;;21.11;76.18;93430.34;5091555;28;20089;-48
2021/06/26 01:22:08;;;;;;;40.35;36.90;;;;;;;21.11;76.41;93424.72;5091086;28;20416;-49
2021/06/26 01:24:35;;;;;;;35.33;32.88;;;;;;;21.10;76.24;93431.69;5091354;28;20118;-47
2021/06/26 01:27:01;;;;;;;38.28;34.80;;;;;;;21.17;76.05;93434.84;5091093;28;20050;-50
2021/06/26 01:29:27;;;;;;;34.53;31.38;;;;;;;21.19;76.06;93420.91;5091234;28;20031;-53
2021/06/26 01:31:53;;;;;;;37.10;34.13;;;;;;;21.07;76.31;93421.00;5085983;28;20485;-49
2021/06/26 01:34:19;;;;;;;34.95;31.75;;;;;;;21.06;76.12;93411.84;5071030;28;20059;-48
2021/06/26 01:36:45;;;;;;;42.25;38.38;;;;;;;21.14;76.51;93412.25;5070678;28;20040;-49
2021/06/26 01:39:10;;;;;;;39.42;36.78;;;;;;;21.18;76.47;93413.84;5071019;28;20116;-48
2021/06/26 01:41:36;;;;;;;48.45;44.25;;;;;;;21.03;77.18;93413.06;5070054;28;20488;-49
2021/06/26 01:44:01;;;;;;;44.63;40.63;;;;;;;20.91;77.46;93423.59;5070570;28;20433;-51
2021/06/26 01:46:27;;;;;;;40.63;37.92;;;;;;;21.01;76.75;93426.22;5070337;28;20024;-51
2021/06/26 01:48:52;;;;;;;35.28;32.33;;;;;;;21.01;75.94;93424.16;5070577;28;20031;-49
2021/06/26 01:51:18;;;;;;;42.92;39.65;;;;;;;21.00;76.53;93430.38;5070542;28;20028;-50
2021/06/26 01:53:43;;;;;;;55.13;51.33;;;;;;;20.95;77.38;93426.63;5070222;28;20032;-56
2021/06/26 01:56:12;;;;;;;60.95;56.78;;;;;;;20.95;77.75;93426.63;5070184;28;20032;-56
2021/06/26 01:58:37;;;;;;;64.90;60.33;;;;;;;20.96;78.08;93427.38;5070389;28;20433;-51
2021/06/26 02:01:02;;;;;;;61.70;57.83;;;;;;;20.92;78.17;93418.72;5070302;28;20028;-55
2021/06/26 02:03:28;;;;;;;75.75;70.55;;;;;;;20.80;78.68;93421.56;5070002;28;20033;-58
2021/06/26 02:05:53;;;;;;;89.80;84.13;;;;;;;20.76;79.12;93424.16;5069832;28;20024;-58
2021/06/26 02:08:19;;;;;;;90.45;84.63;;;;;;;20.77;79.18;93420.00;5069784;28;20540;-58
2021/06/26 02:10:44;;;;;;;77.18;72.05;;;;;;;20.78;78.86;93409.50;5070231;28;20090;-57
2021/06/26 02:13:10;;;;;;;84.25;79.70;;;;;;;20.73;78.88;93405.75;5082451;28;20055;-58
2021/06/26 02:15:35;;;;;;;80.07;75.40;;;;;;;20.81;78.94;93399.88;5090191;28;20111;-56
2021/06/26 02:18:00;;;;;;;84.63;78.65;;;;;;;20.74;78.80;93387.56;5090189;28;20444;-53
2021/06/26 02:20:26;;;;;;;62.88;58.35;;;;;;;20.91;78.24;93398.34;5090063;28;20043;-49
2021/06/26 02:22:51;;;;;;;72.75;67.80;;;;;;;20.86;78.62;93398.72;5090271;28;20035;-52
2021/06/26 02:25:18;;;;;;;65.38;60.70;;;;;;;20.84;78.25;93418.25;5090197;28;20027;-49
2021/06/26 02:27:44;;;;;;;56.92;52.75;;;;;;;20.85;78.11;93414.84;5089754;28;20107;-50
2021/06/26 02:30:11;;;;;;;52.83;49.17;;;;;;;20.85;77.65;93411.31;5090031;28;20020;-48
2021/06/26 02:32:38;;;;;;;52.53;48.63;;;;;;;20.77;77.96;93405.97;5090141;28;20035;-49
2021/06/26 02:35:05;;;;;;;51.75;47.78;;;;;;;20.84;77.68;93393.00;5090080;28;20074;-49
2021/06/26 02:37:31;;;;;;;61.03;56.63;;;;;;;20.84;78.27;93393.00;5090008;28;20031;-49
2021/06/26 02:39:56;;;;;;;58.40;54.40;;;;;;;20.84;78.44;93388.13;5089713;28;20023;-50
2021/06/26 02:42:22;;;;;;;65.70;60.53;;;;;;;20.72;78.76;93393.06;5089663;28;20032;-49
2021/06/26 02:44:47;;;;;;;58.67;54.20;;;;;;;20.76;78.39;93387.69;5089980;28;20022;-48
2021/06/26 02:47:13;;;;;;;50.45;46.95;;;;;;;20.75;77.82;93399.50;5089904;28;20020;-48
2021/06/26 02:49:38;;;;;;;54.13;49.72;;;;;;;20.63;77.74;93396.78;5089946;28;20659;-48
2021/06/26 02:52:05;;;;;;;54.40;50.28;;;;;;;20.53;78.55;93401.78;5089410;28;20016;-48
2021/06/26 02:54:32;;;;;;;52.47;48.70;;;;;;;20.47;77.96;93387.44;5089570;28;20031;-49
2021/06/26 02:56:57;;;;;;;47.65;44.00;;;;;;;20.59;77.67;93393.00;5089502;28;20531;-48
2021/06/26 02:59:23;;;;;;;47.50;43.90;;;;;;;20.64;77.35;93394.69;5089776;28;20032;-49
2021/06/26 03:01:48;;;;;;;52.67;49.13;;;;;;;20.57;77.89;93387.28;5089604;28;20097;-48
2021/06/26 03:04:14;;;;;;;52.03;48.10;;;;;;;20.62;77.60;93386.88;5089907;28;20028;-49
2021/06/26 03:06:39;;;;;;;47.08;43.33;;;;;;;20.59;77.28;93396.56;5075150;28;20016;-49
2021/06/26 03:09:04;;;;;;;49.67;46.00;;;;;;;20.57;77.08;93410.47;5068791;28;20045;-50
2021/06/26 03:11:30;;;;;;;50.28;46.33;;;;;;;20.48;77.67;93410.59;5069364;28;20394;-54
2021/06/26 03:13:55;;;;;;;56.60;52.47;;;;;;;20.33;78.24;93415.44;5088541;28;20099;-54
2021/06/26 03:16:21;;;;;;;60.30;56.15;;;;;;;20.38;78.16;93411.50;5089477;28;20032;-50
2021/06/26 03:18:46;;;;;;;64.80;60.03;;;;;;;20.36;78.57;93419.06;5089170;28;20035;-49
2021/06/26 03:21:12;;;;;;;67.30;62.00;;;;;;;20.38;78.72;93422.69;5089332;28;20032;-48
2021/06/26 03:23:39;;;;;;;55.65;51.83;;;;;;;20.41;77.83;93429.16;5089306;28;20024;-46
2021/06/26 03:26:05;;;;;;;59.30;54.13;;;;;;;20.30;77.92;93419.44;5089149;28;20024;-47
2021/06/26 03:28:31;;;;;;;50.28;45.35;;;;;;;20.46;77.13;93435.75;5089611;28;20044;-48
2021/06/26 03:30:57;;;;;;;54.67;50.83;;;;;;;20.33;77.50;93423.09;5089219;28;20034;-47
2021/06/26 03:33:23;;;;;;;51.60;46.92;;;;;;;20.34;77.60;93427.34;5089366;28;20024;-50
2021/06/26 03:35:48;;;;;;;56.70;52.67;;;;;;;20.28;77.89;93435.41;5099249;28;20024;-50
2021/06/26 03:38:13;;;;;;;99.68;91.45;;;;;;;20.30;77.92;93435.53;5106779;28;20431;-51
2021/06/26 03:40:39;;;;;;;51.85;48.35;;;;;;;20.29;77.89;93436.88;5092656;28;20481;-53
2021/06/26 03:43:05;;;;;;;39.83;36.08;;;;;;;20.31;77.70;93437.72;5087441;28;20079;-53
2021/06/26 03:45:30;;;;;;;41.97;38.33;;;;;;;20.34;77.13;93444.91;5087669;28;20028;-53
2021/06/26 03:47:56;;;;;;;40.30;37.20;;;;;;;20.23;76.88;93420.44;5087616;28;20028;-52
2021/06/26 03:50:21;;;;;;;52.88;49.20;;;;;;;20.30;78.32;93424.31;5087403;28;20050;-50
2021/06/26 03:52:47;;;;;;;74.05;68.72;;;;;;;20.32;78.97;93435.66;5087448;28;20034;-52
2021/06/26 03:55:13;;;;;;;66.03;60.85;;;;;;;20.32;79.23;93438.44;5087620;28;20085;-48
2021/06/26 03:57:38;;;;;;;107.25;99.50;;;;;;;20.35;78.83;93446.38;5088164;28;20028;-51
2021/06/26 04:00:08;;;;;;;55.42;51.92;;;;;;;20.39;77.96;93454.28;5089180;28;20024;-48
2021/06/26 04:02:33;;;;;;;61.38;57.08;;;;;;;20.27;78.61;93450.78;5088963;28;20538;-49
2021/06/26 04:04:59;;;;;;;66.75;62.38;;;;;;;20.23;79.40;93439.31;5090909;28;20051;-48
2021/06/26 04:07:24;;;;;;;72.00;67.25;;;;;;;20.24;79.31;93447.13;5071786;28;20422;-49
2021/06/26 04:09:49;;;;;;;70.55;66.00;;;;;;;20.40;78.91;93447.31;5072310;28;20028;-53
2021/06/26 04:12:15;;;;;;;69.13;65.18;;;;;;;20.48;78.78;93445.00;5077353;28;20024;-54
2021/06/26 04:14:40;;;;;;;67.80;63.40;;;;;;;20.52;79.10;93445.22;5092418;28;20432;-55
2021/06/26 04:17:06;;;;;;;60.20;56.15;;;;;;;20.48;79.15;93444.25;5092275;28;20028;-57
2021/06/26 04:19:32;;;;;;;61.78;56.97;;;;;;;20.48;79.41;93442.19;5091096;28;20039;-57
2021/06/26 04:21:57;;;;;;;66.85;62.10;;;;;;;20.52;79.71;93448.03;5092574;28;20085;-55
2021/06/26 04:24:23;;;;;;;63.30;58.75;;;;;;;20.64;79.29;93448.72;5092224;28;20084;-56
2021/06/26 04:26:48;;;;;;;66.45;61.90;;;;;;;20.70;79.33;93451.88;5092463;28;20035;-56
2021/06/26 04:29:13;;;;;;;65.30;60.13;;;;;;;20.73;79.19;93452.69;5092093;28;20056;-53
2021/06/26 04:31:39;;;;;;;59.28;55.42;;;;;;;20.77;79.36;93459.28;5092068;28;20036;-53
2021/06/26 04:34:04;;;;;;;66.10;61.88;;;;;;;20.83;79.58;93456.09;5091959;28;20157;-53
2021/06/26 04:36:30;;;;;;;60.30;56.65;;;;;;;20.95;79.43;93462.38;5092012;28;20024;-52
2021/06/26 04:38:55;;;;;;;56.67;52.92;;;;;;;21.00;79.33;93461.28;5091824;28;20037;-52
2021/06/26 04:41:22;;;;;;;59.95;55.42;;;;;;;21.02;79.43;93464.91;5091758;28;20028;-54
2021/06/26 04:43:48;;;;;;;55.70;51.78;;;;;;;21.10;79.17;93462.59;5091812;28;20031;-53
2021/06/26 04:46:13;;;;;;;54.65;50.75;;;;;;;21.14;79.28;93460.00;5092027;28;20028;-55
2021/06/26 04:48:41;;;;;;;52.72;48.10;;;;;;;21.23;78.77;93460.44;5091947;28;20464;-57
2021/06/26 04:51:06;;;;;;;49.40;45.47;;;;;;;21.35;78.56;93467.47;5091631;28;20055;-56
2021/06/26 04:53:32;;;;;;;46.85;43.42;;;;;;;21.37;78.95;93466.84;5091652;28;20055;-58
2021/06/26 04:55:58;;;;;;;45.55;41.95;;;;;;;21.43;78.54;93461.53;5091532;28;20028;-50
2021/06/26 04:58:24;;;;;;;47.20;43.90;;;;;;;21.46;78.76;93463.81;5091507;28;20024;-54
2021/06/26 05:00:51;;;;;;;49.05;45.33;;;;;;;21.48;79.43;93458.34;5091861;28;20024;-49
2021/06/26 05:03:20;;;;;;;50.80;46.83;;;;;;;21.49;79.39;93454.16;5091683;28;20032;-55
2021/06/26 05:05:47;;;;;;;52.63;48.58;;;;;;;21.52;79.51;93457.81;5084683;28;20035;-56
2021/06/26 05:08:12;;;;;;;50.65;46.70;;;;;;;21.51;79.40;93454.28;5071053;28;20094;-54
2021/06/26 05:10:38;;;;;;;37.42;32.35;;;;;;;21.61;78.90;93454.09;5071151;28;20028;-48
2021/06/26 05:13:05;;;;;;;37.65;34.00;;;;;;;21.66;77.82;93456.47;5083130;28;20110;-47
2021/06/26 05:15:31;;;;;;;41.25;37.33;;;;;;;21.75;78.61;93457.66;5091653;28;20050;-46
2021/06/26 05:17:56;;;;;;;44.15;39.85;;;;;;;21.78;78.91;93462.75;5087468;28;20482;-47
2021/06/26 05:20:22;;;;;;;37.05;33.55;;;;;;;21.86;78.55;93460.41;5074016;28;20555;-47
2021/06/26 05:22:47;;;;;;;38.75;31.70;;;;;;;21.90;78.21;93459.88;5091265;28;20055;-47
2021/06/26 05:25:13;;;;;;;198.00;177.40;;;;;;;22.03;79.48;93461.22;5091286;28;20051;-49
2021/06/26 05:27:38;;;;;;;36.95;33.17;;;;;;;22.08;78.88;93469.25;5091137;28;20028;-47
2021/06/26 05:30:05;;;;;;;36.63;33.13;;;;;;;22.11;79.02;93464.47;5091362;28;20024;-47
2021/06/26 05:32:31;;;;;;;37.58;27.45;;;;;;;22.24;78.52;93463.75;5091193;28;20055;-48
2021/06/26 05:34:56;;;;;;;30.27;23.58;;;;;;;22.26;77.51;93470.19;5091306;28;20116;-47
2021/06/26 05:37:21;;;;;;;29.85;20.45;;;;;;;22.37;76.77;93457.38;5091306;28;20039;-47
2021/06/26 05:39:47;;;;;;;29.42;23.65;;;;;;;22.46;76.67;93451.50;5091460;28;20485;-48
2021/06/26 05:42:12;;;;;;;28.90;20.98;;;;;;;22.52;76.12;93463.06;5091290;28;20511;-51
2021/06/26 05:44:38;;;;;;;30.42;20.00;;;;;;;22.57;76.51;93459.09;5090943;28;20030;-48
2021/06/26 05:47:04;;;;;;;30.60;24.65;;;;;;;22.74;77.56;93460.66;5091122;28;20024;-49
2021/06/26 05:49:29;;;;;;;31.13;27.13;;;;;;;22.82;78.13;93463.16;5091118;28;20051;-48
2021/06/26 05:51:54;;;;;;;35.90;25.23;;;;;;;22.86;77.27;93460.53;5091060;28;20068;-48
2021/06/26 05:54:20;;;;;;;35.33;19.27;;;;;;;22.92;77.26;93464.38;5087535;28;20031;-48
2021/06/26 05:56:46;;;;;;;33.85;19.85;;;;;;;23.04;74.94;93458.59;5079375;28;20023;-52
2021/06/26 05:59:11;;;;;;;33.88;16.65;;;;;;;23.13;73.54;93461.16;5080478;28;20016;-49
2021/06/26 06:01:37;;;;;;;42.85;16.95;;;;;;;23.15;74.17;93469.69;5078579;28;20094;-51
2021/06/26 06:04:02;;;;;;;33.47;16.95;;;;;;;23.15;74.26;93471.81;5079965;28;20031;-50
2021/06/26 06:06:28;;;;;;;42.13;32.70;;;;;;;23.25;75.32;93467.38;5078044;28;20103;-51
2021/06/26 06:08:53;;;;;;;31.65;17.30;;;;;;;23.32;73.93;93465.59;5080121;28;20048;-50
2021/06/26 06:11:19;;;;;;;28.15;15.48;;;;;;;23.33;73.90;93456.53;5078600;28;20024;-49
2021/06/26 06:13:44;;;;;;;23.10;13.38;;;;;;;23.42;73.95;93446.34;5080166;28;20036;-49
2021/06/26 06:16:10;;;;;;;27.65;14.32;;;;;;;23.49;72.87;93441.72;5078990;28;20076;-48
2021/06/26 06:18:35;;;;;;;31.20;14.77;;;;;;;23.59;72.64;93451.38;5080215;28;20043;-47
2021/06/26 06:21:01;;;;;;;32.90;13.98;;;;;;;23.74;69.90;93442.19;5078735;28;20505;-48
2021/06/26 06:23:26;;;;;;;32.35;13.85;;;;;;;23.75;70.17;93443.66;5079128;28;20545;-49
2021/06/26 06:25:53;;;;;;;27.63;12.10;;;;;;;23.83;70.45;93452.47;5079484;28;20474;-53
2021/06/26 06:28:19;;;;;;;22.95;11.98;;;;;;;23.88;71.48;93447.75;5077686;28;20051;-47
2021/06/26 06:30:44;;;;;;;32.13;12.73;;;;;;;23.95;70.24;93452.28;5079121;28;20031;-49
2021/06/26 06:33:10;;;;;;;23.80;11.82;;;;;;;24.03;70.28;93444.91;5079747;28;20032;-48
2021/06/26 06:35:35;;;;;;;26.55;11.52;;;;;;;24.15;68.67;93452.50;5087822;28;20475;-48
2021/06/26 06:38:01;;;;;;;32.40;12.60;;;;;;;24.17;69.89;93456.09;5079357;28;20039;-49
2021/06/26 06:40:27;;;;;;;29.77;12.30;;;;;;;24.26;70.07;93448.72;5080144;28;20051;-49
2021/06/26 06:42:53;;;;;;;31.10;12.98;;;;;;;24.33;70.38;93456.09;5077648;28;20028;-49
2021/06/26 06:45:18;;;;;;;26.27;11.95;;;;;;;24.40;67.94;93449.34;5079516;28;20027;-48
2021/06/26 06:47:44;;;;;;;22.63;10.15;;;;;;;24.46;67.24;93452.41;5072000;28;20025;-48
2021/06/26 06:50:11;;;;;;;23.23;8.68;;;;;;;24.50;65.85;93444.13;5069466;28;20489;-48
2021/06/26 06:52:37;;;;;;;33.10;7.80;;;;;;;24.58;62.97;93453.66;5084498;28;20421;-47
2021/06/26 06:55:04;;;;;;;31.73;9.57;;;;;;;24.66;63.44;93450.44;5079297;28;20048;-48
2021/06/26 06:57:30;;;;;;;23.58;8.80;;;;;;;24.70;65.56;93451.34;5077807;28;20029;-47
2021/06/26 06:59:55;;;;;;;23.38;8.98;;;;;;;24.89;64.48;93452.84;5080265;28;20035;-50
2021/06/26 07:02:21;;;;;;;19.70;7.30;;;;;;;24.86;63.48;93462.63;5079044;28;20028;-48
2021/06/26 07:04:47;;;;;;;15.93;8.02;;;;;;;24.88;64.87;93456.31;5075700;28;20540;-50
2021/06/26 07:07:13;;;;;;;21.35;7.82;;;;;;;24.98;64.59;93453.91;5068723;28;20044;-47
2021/06/26 07:09:38;;;;;;;22.23;7.10;;;;;;;25.09;62.95;93459.31;5069539;28;20463;-46
2021/06/26 07:12:05;;;;;;;31.75;8.20;;;;;;;25.12;64.02;93458.03;5072471;28;20024;-46
2021/06/26 07:14:30;;;;;;;25.42;7.35;;;;;;;25.29;62.73;93462.97;5088218;28;20028;-46
2021/06/26 07:16:56;;;;;;;21.88;7.72;;;;;;;25.31;61.23;93465.13;5080964;28;20488;-46
2021/06/26 07:19:21;;;;;;;25.73;8.02;;;;;;;25.33;62.58;93460.31;5089617;28;20035;-44
2021/06/26 07:21:46;;;;;;;18.00;7.15;;;;;;;25.38;61.68;93464.00;5089648;28;20028;-45
2021/06/26 07:24:12;;;;;;;21.30;6.75;;;;;;;25.48;61.63;93459.50;5089485;28;20085;-46
2021/06/26 07:26:38;;;;;;;21.85;6.50;;;;;;;25.75;59.84;93466.19;5089370;28;20026;-44
2021/06/26 07:29:05;;;;;;;23.38;6.38;;;;;;;26.03;57.67;93465.09;5089827;28;20024;-43
2021/06/26 07:31:30;;;;;;;18.10;5.65;;;;;;;26.37;57.28;93457.19;5089487;28;20081;-44
2021/06/26 07:33:56;;;;;;;22.65;6.88;;;;;;;26.70;57.63;93456.22;5089451;28;20036;-45
2021/06/26 07:36:21;;;;;;;21.10;5.60;;;;;;;26.99;57.43;93448.03;5089695;28;20038;-47
2021/06/26 07:38:47;;;;;;;14.13;5.22;;;;;;;27.53;51.78;93457.56;5091917;28;20100;-44
2021/06/26 07:41:13;;;;;;;21.77;6.20;;;;;;;28.03;53.00;93464.06;5113417;28;20397;-44
2021/06/26 07:43:39;;;;;;;21.48;5.63;;;;;;;28.59;51.19;93461.44;5113865;28;20027;-45
2021/06/26 07:46:04;;;;;;;16.17;5.80;;;;;;;28.96;49.05;93470.25;5093150;28;20038;-43
2021/06/26 07:48:30;;;;;;;22.85;5.40;;;;;;;29.27;49.87;93468.19;5093148;28;20012;-47
2021/06/26 07:50:57;;;;;;;18.83;5.28;;;;;;;30.08;46.94;93453.75;5093217;28;20431;-46
2021/06/26 07:53:22;;;;;;;19.88;5.40;;;;;;;30.58;43.97;93434.84;5091850;28;20554;-46
2021/06/26 07:55:51;;;;;;;18.77;5.90;;;;;;;31.25;41.67;93454.63;5082135;28;20111;-44
2021/06/26 07:58:25;;;;;;;25.33;5.18;;;;;;;31.87;41.04;93454.94;5081679;28;21252;-46
2021/06/26 08:00:51;;;;;;;25.60;6.10;;;;;;;32.29;41.95;93463.41;5085055;28;20489;-42
2021/06/26 08:03:17;;;;;;;19.55;5.20;;;;;;;32.21;39.96;93462.53;5092943;28;20034;-44
2021/06/26 08:05:43;;;;;;;15.02;5.13;;;;;;;32.40;40.27;93461.38;5092574;28;20516;-44
2021/06/26 08:08:08;;;;;;;15.93;5.20;;;;;;;32.11;40.45;93460.28;5092705;28;20044;-48
2021/06/26 08:10:34;;;;;;;20.00;5.20;;;;;;;32.48;41.09;93458.66;5093156;28;20038;-46
2021/06/26 08:12:59;;;;;;;23.38;5.45;;;;;;;32.99;39.31;93466.41;5088594;28;20032;-45
2021/06/26 08:15:25;;;;;;;20.38;5.15;;;;;;;33.13;38.20;93457.97;5072683;28;20028;-47
2021/06/26 08:17:51;;;;;;;18.52;5.05;;;;;;;33.49;37.42;93461.16;5091583;28;20499;-47
2021/06/26 08:20:16;;;;;;;20.80;4.97;;;;;;;34.08;35.50;93462.38;5112802;28;20439;-47
2021/06/26 08:22:42;;;;;;;18.40;5.53;;;;;;;34.41;37.49;93459.69;5113219;28;20035;-47
2021/06/26 08:25:08;;;;;;;17.02;4.90;;;;;;;34.65;36.38;93454.81;5113060;28;20027;-44
2021/06/26 08:27:33;;;;;;;14.32;5.10;;;;;;;34.74;34.55;93450.50;5112789;28;20057;-44
2021/06/26 08:29:59;;;;;;;14.75;5.03;;;;;;;35.03;33.99;93445.59;5112949;28;20031;-43
2021/06/26 08:32:25;;;;;;;16.23;4.63;;;;;;;35.37;33.71;93456.44;5098610;28;20493;-43
2021/06/26 08:34:50;;;;;;;22.63;5.32;;;;;;;34.80;34.74;93450.56;5069327;28;20086;-46
2021/06/26 08:37:16;;;;;;;13.77;4.13;;;;;;;34.95;34.37;93454.19;5069884;28;20116;-43
2021/06/26 08:39:41;;;;;;;17.60;4.72;;;;;;;34.53;35.04;93445.41;5069666;28;20044;-43
2021/06/26 08:42:07;;;;;;;18.83;6.13;;;;;;;33.53;36.22;93446.19;5103117;28;20031;-43
2021/06/26 08:44:33;;;;;;;17.77;4.72;;;;;;;33.50;37.72;93444.72;5110204;28;20393;-44
2021/06/26 08:46:59;;;;;;;18.52;5.47;;;;;;;33.61;37.06;93446.97;5110340;28;20038;-44
2021/06/26 08:49:25;;;;;;;20.10;5.68;;;;;;;34.13;37.93;93445.91;5110211;28;20514;-45
2021/06/26 08:51:52;;;;;;;18.38;5.40;;;;;;;34.43;37.90;93436.75;5109944;28;20020;-44
2021/06/26 08:54:18;;;;;;;15.65;5.05;;;;;;;34.50;34.37;93438.22;5110216;28;20023;-43
2021/06/26 08:56:45;;;;;;;13.40;5.10;;;;;;;34.42;36.71;93435.28;5109964;28;20046;-44
2021/06/26 08:59:11;;;;;;;20.20;5.50;;;;;;;34.03;35.46;93437.25;5110433;28;20572;-43
2021/06/26 09:01:38;;;;;;;23.90;5.82;;;;;;;33.70;36.26;93447.03;5110595;28;20190;-44
2021/06/26 09:04:04;;;;;;;19.42;4.57;;;;;;;33.46;36.14;93453.97;5110175;28;20196;-43
2021/06/26 09:06:33;;;;;;;13.57;4.65;;;;;;;33.10;35.78;93450.06;5096860;28;20043;-43
2021/06/26 09:08:58;;;;;;;;;;;;;;;33.00;37.57;93442.09;5087798;28;20056;-46
2021/06/26 09:11:25;;;;;;;22.63;6.03;;;;;;;33.54;38.36;93433.31;5069166;28;19919;-41
2021/06/26 09:13:50;;;;;;;17.15;5.32;;;;;;;33.47;35.29;93437.50;5068976;28;20036;-46
2021/06/26 09:16:16;;;;;;;23.42;5.80;;;;;;;32.90;36.99;93433.38;5068010;28;20032;-46
2021/06/26 09:18:44;;;;;;;16.77;4.53;;;;;;;32.80;37.28;93427.56;5069423;28;20028;-44
2021/06/26 09:21:35;;;;;;;20.02;5.13;;;;;;;32.87;36.63;93429.06;5068965;28;20507;-41
2021/06/26 09:24:09;;;;;;;21.63;5.70;;;;;;;33.06;36.27;93436.44;5086362;28;20032;-44
2021/06/26 09:26:43;;;;;;;19.17;5.30;;;;;;;33.20;35.61;93425.13;5094911;28;20506;-42
2021/06/26 09:29:13;;;;;;;17.27;4.65;;;;;;;33.58;34.06;93427.63;5110658;28;20458;-43
2021/06/26 09:31:52;;;;;;;19.70;4.93;;;;;;;33.52;35.54;93421.84;5109747;28;20107;-44
2021/06/26 09:34:19;;;;;;;14.25;4.57;;;;;;;32.89;35.10;93426.22;5109476;28;20559;-44
2021/06/26 09:36:45;;;;;;;17.52;4.70;;;;;;;33.04;36.62;93421.41;5108924;28;20020;-43
2021/06/26 09:39:11;;;;;;;16.48;4.00;;;;;;;33.14;34.80;93418.63;5109620;28;20024;-44
2021/06/26 09:41:39;;;;;;;20.38;4.63;;;;;;;33.42;34.67;93416.00;5109821;28;20031;-44
2021/06/26 09:44:13;;;;;;;15.33;4.30;;;;;;;33.31;33.78;93408.78;5109701;28;20033;-43
2021/06/26 09:46:49;;;;;;;16.58;4.40;;;;;;;33.50;36.63;93407.50;5109770;28;20114;-43
2021/06/26 09:49:14;;;;;;;16.33;4.78;;;;;;;33.86;34.30;93407.03;5110988;28;20504;-42
2021/06/26 09:51:40;;;;;;;14.93;4.18;;;;;;;33.58;30.68;93407.56;5111385;28;20030;-42
2021/06/26 09:54:07;;;;;;;14.02;4.22;;;;;;;33.58;31.02;93404.72;5111378;28;20511;-44
2021/06/26 09:56:45;;;;;;;22.88;4.85;;;;;;;33.70;33.89;93396.19;5110240;28;20024;-42
2021/06/26 09:59:13;;;;;;;14.47;4.80;;;;;;;33.91;31.37;93382.72;5073677;28;20037;-43
2021/06/26 10:01:42;;;;;;;14.43;4.05;;;;;;;34.31;34.02;93395.13;5081148;28;20024;-41
2021/06/26 10:04:15;;;;;;;9.43;3.78;;;;;;;34.01;30.52;93382.78;5070337;28;20042;-45
2021/06/26 10:06:42;;;;;;;20.25;4.10;;;;;;;33.77;31.56;93394.09;5083554;28;20024;-42
2021/06/26 10:09:08;;;;;;;17.03;4.00;;;;;;;33.60;30.48;93399.72;5090185;28;20059;-44
2021/06/26 10:11:35;;;;;;;15.80;4.15;;;;;;;33.57;31.54;93398.25;5090349;28;20296;-48
2021/06/26 10:14:01;;;;;;;12.30;3.95;;;;;;;33.22;32.38;93398.69;5090179;28;20519;-43
2021/06/26 10:16:31;;;;;;;14.98;4.28;;;;;;;33.06;29.88;93389.94;5089035;28;20031;-42
2021/06/26 10:19:01;;;;;;;18.20;3.97;;;;;;;33.35;32.36;93392.34;5087844;28;20063;-43
2021/06/26 10:21:28;;;;;;;21.52;5.07;;;;;;;33.09;30.26;93397.13;5087670;28;20024;-44
2021/06/26 10:23:55;;;;;;;32.40;26.50;;;;;;;33.08;29.14;93402.13;5087824;28;20428;-44
2021/06/26 10:26:22;;;;;;;13.63;4.78;;;;;;;33.57;31.20;93400.41;5087913;28;20020;-44
2021/06/26 10:28:54;;;;;;;13.25;4.38;;;;;;;33.83;25.37;93391.97;5086899;28;20019;-44
2021/06/26 10:31:36;;;;;;;22.60;4.30;;;;;;;34.26;28.36;93395.84;5088214;28;20046;-45
2021/06/26 10:34:10;;;;;;;13.25;3.58;;;;;;;34.16;25.96;93390.75;5087950;28;20602;-46
2021/06/26 10:36:36;;;;;;;17.77;4.38;;;;;;;33.68;26.92;93387.59;5087906;28;20039;-43
2021/06/26 10:39:03;;;;;;;25.85;4.18;;;;;;;34.03;28.52;93382.81;5087425;28;20035;-45
2021/06/26 10:41:28;;;;;;;27.13;5.13;;;;;;;33.94;26.95;93387.06;5074947;28;20033;-44
2021/06/26 10:44:04;;;;;;;18.58;3.78;;;;;;;34.44;27.41;93380.84;5082806;28;20081;-41
2021/06/26 10:46:30;;;;;;;19.00;4.40;;;;;;;34.84;28.81;93378.13;5081552;28;20032;-43
2021/06/26 10:49:10;;;;;;;16.10;3.50;;;;;;;35.27;28.38;93367.41;5066530;28;20108;-43
2021/06/26 10:51:37;;;;;;;22.80;4.60;;;;;;;35.58;29.45;93375.34;5074038;28;20071;-41
2021/06/26 10:54:19;;;;;;;19.30;4.13;;;;;;;35.59;25.98;93376.03;5069900;28;20039;-43
2021/06/26 10:56:47;;;;;;;14.75;3.55;;;;;;;35.09;28.36;93376.03;5077935;28;20035;-42
2021/06/26 10:59:15;;;;;;;20.05;4.40;;;;;;;35.00;25.75;93366.69;5077852;28;20201;-46
2021/06/26 11:01:52;;;;;;;14.15;3.50;;;;;;;35.14;26.02;93372.44;5077097;28;20029;-44
2021/06/26 11:04:17;;;;;;;17.13;4.60;;;;;;;35.06;25.88;93372.44;5077505;28;20532;-43
2021/06/26 11:06:43;;;;;;;13.88;4.05;;;;;;;35.11;28.39;93362.38;5077165;28;20036;-43
2021/06/26 11:09:11;;;;;;;16.63;3.75;;;;;;;34.41;27.58;93383.00;5077372;28;20486;-41
2021/06/26 11:11:41;;;;;;;17.38;4.57;;;;;;;33.77;26.94;93383.34;5077779;28;20095;-46
2021/06/26 11:14:07;;;;;;;26.70;4.60;;;;;;;34.11;28.47;93374.97;5080503;28;20105;-46
2021/06/26 11:16:33;;;;;;;12.95;3.60;;;;;;;34.48;26.35;93375.13;5081184;28;20462;-44